Time;durP1;ratioP1;P1;durP2;ratioP2;P2;SDS_P1;SDS_P2;PMS_P1;PMS_P2;Temp;Humidity;BMP_temperature;BMP_pressure;BME280_temperature;BME280_humidity;BME280_pressure;Samples;Min_cycle;Max_cycle;Signal;HPM_P1;HPM_P2
2022/03/08 00:01:17;;;;;;;;;;;;;;;;;;5095519;28;20340;-68
2022/03/08 00:03:43;;;;;;;;;;;;;;;;;;5096906;28;19999;-68
2022/03/08 00:06:10;;;;;;;;;;;;;;;;;;5096234;28;19909;-68
2022/03/08 00:08:36;;;;;;;;;;;;;;;;;;5096747;28;19995;-68
2022/03/08 00:11:03;;;;;;;;;;;;;;;;;;5096176;28;20364;-68
2022/03/08 00:13:29;;;;;;;;;;;;;;;;;;5095320;28;20372;-68
2022/03/08 00:15:55;;;;;;;;;;;;;;;;;;5095303;28;19933;-68
2022/03/08 00:18:21;;;;;;;;;;;;;;;;;;5095715;28;20370;-68
2022/03/08 00:20:47;;;;;;;;;;;;;;;;;;5095332;28;19916;-68
2022/03/08 00:23:12;;;;;;;;;;;;;;;;;;5096732;28;20042;-68
2022/03/08 00:25:38;;;;;;;;;;;;;;;;;;5094624;28;19908;-68
2022/03/08 00:28:05;;;;;;;;;;;;;;;;;;5094963;28;19942;-68
2022/03/08 00:30:31;;;;;;;;;;;;;;;;;;5094950;28;19909;-68
2022/03/08 00:32:57;;;;;;;;;;;;;;;;;;5095790;28;19916;-68
2022/03/08 00:35:23;;;;;;;;;;;;;;;;;;5096259;28;19934;-68
2022/03/08 00:37:49;;;;;;;;;;;;;;;;;;5094825;28;19908;-67
2022/03/08 00:40:15;;;;;;;;;;;;;;;;;;5095761;28;19908;-67
2022/03/08 00:42:41;;;;;;;;;;;;;;;;;;5094754;28;20371;-67
2022/03/08 00:45:07;;;;;;;;;;;;;;;;;;5094651;28;19908;-68
2022/03/08 00:47:33;;;;;;;;;;;;;;;;;;5094015;28;19924;-68
2022/03/08 00:49:59;;;;;;;;;;;;;;;;;;5094624;28;19912;-68
2022/03/08 00:52:25;;;;;;;;;;;;;;;;;;5094551;28;19912;-68
2022/03/08 00:54:51;;;;;;;;;;;;;;;;;;5095417;28;20371;-68
2022/03/08 00:57:17;;;;;;;;;;;;;;;;;;5095674;28;19915;-68
2022/03/08 00:59:43;;;;;;;;;;;;;;;;;;5094468;28;19930;-68
2022/03/08 01:02:09;;;;;;;;;;;;;;;;;;5095256;28;19951;-68
2022/03/08 01:04:35;;;;;;;;;;;;;;;;;;5095676;28;19944;-68
2022/03/08 01:07:01;;;;;;;;;;;;;;;;;;5095599;28;20376;-68
2022/03/08 01:09:27;;;;;;;;;;;;;;;;;;5095028;28;19908;-68
2022/03/08 01:11:53;;;;;;;;;;;;;;;;;;5095475;28;19953;-68
2022/03/08 01:14:19;;;;;;;;;;;;;;;;;;5093761;28;20416;-68
2022/03/08 01:16:45;;;;;;;;;;;;;;;;;;5094075;28;19995;-68
2022/03/08 01:19:11;;;;;;;;;;;;;;;;;;5094024;28;20357;-68
2022/03/08 01:21:37;;;;;;;;;;;;;;;;;;5094875;28;19919;-68
2022/03/08 01:24:03;;;;;;;;;;;;;;;;;;5095308;28;19914;-68
2022/03/08 01:26:29;;;;;;;;;;;;;;;;;;5095527;28;20352;-68
2022/03/08 01:28:56;;;;;;;;;;;;;;;;;;5094790;28;19908;-68
2022/03/08 01:31:22;;;;;;;;;;;;;;;;;;5094353;28;20268;-68
2022/03/08 01:33:49;;;;;;;;;;;;;;;;;;5095443;28;19908;-68
2022/03/08 01:36:15;;;;;;;;;;;;;;;;;;5094614;28;20375;-68
2022/03/08 01:38:41;;;;;;;;;;;;;;;;;;5095250;28;19909;-68
2022/03/08 01:41:07;;;;;;;;;;;;;;;;;;5094846;28;19951;-67
2022/03/08 01:43:33;;;;;;;;;;;;;;;;;;5093150;28;19908;-67
2022/03/08 01:45:59;;;;;;;;;;;;;;;;;;5094522;28;19969;-68
2022/03/08 01:48:25;;;;;;;;;;;;;;;;;;5093499;28;20004;-67
2022/03/08 01:50:51;;;;;;;;;;;;;;;;;;5093048;28;19977;-69
2022/03/08 01:53:17;;;;;;;;;;;;;;;;;;5094709;28;19950;-68
2022/03/08 01:55:43;;;;;;;;;;;;;;;;;;5094713;28;20383;-68
2022/03/08 01:58:09;;;;;;;;;;;;;;;;;;5094271;28;20175;-68
2022/03/08 02:00:35;;;;;;;;;;;;;;;;;;5094543;28;19948;-68
2022/03/08 02:03:01;;;;;;;;;;;;;;;;;;5094501;28;20318;-67
2022/03/08 02:05:27;;;;;;;;;;;;;;;;;;5094204;28;19909;-67
2022/03/08 02:07:53;;;;;;;;;;;;;;;;;;5094345;28;19917;-67
2022/03/08 02:10:19;;;;;;;;;;;;;;;;;;5093119;28;19954;-67
2022/03/08 02:12:45;;;;;;;;;;;;;;;;;;5093888;28;19970;-67
2022/03/08 02:15:11;;;;;;;;;;;;;;;;;;5094349;28;19908;-67
2022/03/08 02:17:37;;;;;;;;;;;;;;;;;;5092561;28;20272;-67
2022/03/08 02:20:03;;;;;;;;;;;;;;;;;;5092959;28;19938;-67
2022/03/08 02:22:29;;;;;;;;;;;;;;;;;;5092897;28;19999;-67
2022/03/08 02:24:55;;;;;;;;;;;;;;;;;;5092475;28;19935;-67
2022/03/08 02:27:21;;;;;;;;;;;;;;;;;;5094070;28;19916;-67
2022/03/08 02:29:47;;;;;;;;;;;;;;;;;;5092807;28;19915;-68
2022/03/08 02:32:13;;;;;;;;;;;;;;;;;;5093655;28;20003;-68
2022/03/08 02:34:39;;;;;;;;;;;;;;;;;;5094027;28;19912;-68
2022/03/08 02:37:07;;;;;;;;;;;;;;;;;;5094049;28;20269;-68
2022/03/08 02:39:33;;;;;;;;;;;;;;;;;;5092322;28;19909;-68
2022/03/08 02:41:59;;;;;;;;;;;;;;;;;;5092506;28;19918;-67
2022/03/08 02:44:25;;;;;;;;;;;;;;;;;;5093907;28;19938;-67
2022/03/08 02:46:52;;;;;;;;;;;;;;;;;;5093353;28;19963;-68
2022/03/08 02:49:18;;;;;;;;;;;;;;;;;;5092647;28;19908;-68
2022/03/08 02:51:44;;;;;;;;;;;;;;;;;;5093846;28;19930;-67
2022/03/08 02:54:10;;;;;;;;;;;;;;;;;;5093462;28;19918;-68
2022/03/08 02:56:36;;;;;;;;;;;;;;;;;;5094047;28;19999;-67
2022/03/08 02:59:02;;;;;;;;;;;;;;;;;;5092493;28;20276;-67
2022/03/08 03:01:28;;;;;;;;;;;;;;;;;;5092095;28;19908;-68
2022/03/08 03:03:53;;;;;;;;;;;;;;;;;;5093806;28;20480;-68
2022/03/08 03:06:19;;;;;;;;;;;;;;;;;;5094175;28;20018;-67
2022/03/08 03:08:45;;;;;;;;;;;;;;;;;;5092085;28;19920;-67
2022/03/08 03:11:11;;;;;;;;;;;;;;;;;;5092420;28;20007;-67
2022/03/08 03:13:37;;;;;;;;;;;;;;;;;;5092294;28;20364;-68
2022/03/08 03:16:03;;;;;;;;;;;;;;;;;;5093195;28;19962;-68
2022/03/08 03:18:29;;;;;;;;;;;;;;;;;;5093645;28;20287;-68
2022/03/08 03:20:55;;;;;;;;;;;;;;;;;;5091882;28;19908;-68
2022/03/08 03:23:21;;;;;;;;;;;;;;;;;;5092264;28;19915;-68
2022/03/08 03:25:47;;;;;;;;;;;;;;;;;;5092228;28;20336;-68
2022/03/08 03:28:13;;;;;;;;;;;;;;;;;;5091894;28;19916;-68
2022/03/08 03:30:39;;;;;;;;;;;;;;;;;;5092236;28;19919;-67
2022/03/08 03:33:05;;;;;;;;;;;;;;;;;;5092191;28;20324;-67
2022/03/08 03:35:31;;;;;;;;;;;;;;;;;;5092987;28;19908;-68
2022/03/08 03:37:57;;;;;;;;;;;;;;;;;;5093520;28;19973;-68
2022/03/08 03:40:23;;;;;;;;;;;;;;;;;;5092058;28;19963;-68
2022/03/08 03:42:49;;;;;;;;;;;;;;;;;;5091580;28;19918;-68
2022/03/08 03:45:15;;;;;;;;;;;;;;;;;;5093341;28;19909;-68
2022/03/08 03:47:41;;;;;;;;;;;;;;;;;;5091887;28;19942;-68
2022/03/08 03:50:07;;;;;;;;;;;;;;;;;;5091700;28;19908;-69
2022/03/08 03:52:33;;;;;;;;;;;;;;;;;;5092060;28;19908;-68
2022/03/08 03:54:59;;;;;;;;;;;;;;;;;;5095636;28;19955;-68
2022/03/08 03:57:25;;;;;;;;;;;;;;;;;;5095263;28;20337;-68
2022/03/08 03:59:51;;;;;;;;;;;;;;;;;;5096894;28;19954;-69
2022/03/08 04:02:17;;;;;;;;;;;;;;;;;;5096842;28;19908;-69
2022/03/08 04:04:43;;;;;;;;;;;;;;;;;;5096324;28;20373;-69
2022/03/08 04:07:08;;;;;;;;;;;;;;;;;;5096828;28;19923;-68
2022/03/08 04:09:34;;;;;;;;;;;;;;;;;;5096708;28;19908;-68
2022/03/08 04:12:00;;;;;;;;;;;;;;;;;;5096290;28;19912;-68
2022/03/08 04:14:26;;;;;;;;;;;;;;;;;;5096653;28;19915;-68
2022/03/08 04:16:52;;;;;;;;;;;;;;;;;;5096623;28;19908;-68
2022/03/08 04:19:18;;;;;;;;;;;;;;;;;;5095140;28;19915;-69
2022/03/08 04:21:44;;;;;;;;;;;;;;;;;;5095241;28;19908;-69
2022/03/08 04:24:10;;;;;;;;;;;;;;;;;;5096001;28;19974;-69
2022/03/08 04:26:37;;;;;;;;;;;;;;;;;;5095005;28;20014;-68
2022/03/08 04:29:03;;;;;;;;;;;;;;;;;;5096323;28;20103;-69
2022/03/08 04:31:29;;;;;;;;;;;;;;;;;;5095901;28;20391;-69
2022/03/08 04:33:55;;;;;;;;;;;;;;;;;;5096327;28;19909;-68
2022/03/08 04:36:21;;;;;;;;;;;;;;;;;;5096269;28;19931;-68
2022/03/08 04:38:47;;;;;;;;;;;;;;;;;;5095737;28;19999;-69
2022/03/08 04:41:13;;;;;;;;;;;;;;;;;;5096264;28;19909;-69
2022/03/08 04:43:39;;;;;;;;;;;;;;;;;;5096051;28;20383;-69
2022/03/08 04:46:05;;;;;;;;;;;;;;;;;;5095708;28;19947;-69
2022/03/08 04:48:31;;;;;;;;;;;;;;;;;;5096266;28;20272;-68
2022/03/08 04:50:57;;;;;;;;;;;;;;;;;;5095977;28;19908;-69
2022/03/08 04:53:23;;;;;;;;;;;;;;;;;;5094150;28;19916;-69
2022/03/08 04:55:49;;;;;;;;;;;;;;;;;;5094513;28;20368;-68
2022/03/08 04:58:15;;;;;;;;;;;;;;;;;;5095733;28;19934;-69
2022/03/08 05:00:41;;;;;;;;;;;;;;;;;;5095410;28;20007;-69
2022/03/08 05:03:07;;;;;;;;;;;;;;;;;;5095653;28;20277;-69
2022/03/08 05:05:33;;;;;;;;;;;;;;;;;;5094240;28;19908;-69
2022/03/08 05:07:59;;;;;;;;;;;;;;;;;;5093769;28;19920;-69
2022/03/08 05:10:25;;;;;;;;;;;;;;;;;;5095483;28;20441;-69
2022/03/08 05:12:52;;;;;;;;;;;;;;;;;;5095481;28;19921;-69
2022/03/08 05:15:18;;;;;;;;;;;;;;;;;;5095042;28;19912;-69
2022/03/08 05:17:44;;;;;;;;;;;;;;;;;;5094051;28;19914;-69
2022/03/08 05:20:10;;;;;;;;;;;;;;;;;;5094047;28;19913;-73
2022/03/08 05:22:35;;;;;;;;;;;;;;;;;;5094814;28;19908;-71
2022/03/08 05:25:03;;;;;;;;;;;;;;;;;;5095447;28;20002;-70
2022/03/08 05:27:29;;;;;;;;;;;;;;;;;;5094687;28;19916;-71
2022/03/08 05:29:55;;;;;;;;;;;;;;;;;;5093852;28;19909;-71
2022/03/08 05:32:21;;;;;;;;;;;;;;;;;;5093770;28;19908;-71
2022/03/08 05:34:47;;;;;;;;;;;;;;;;;;5094620;28;20022;-71
2022/03/08 05:37:13;;;;;;;;;;;;;;;;;;5093723;28;20314;-71
2022/03/08 05:39:39;;;;;;;;;;;;;;;;;;5095299;28;19961;-71
2022/03/08 05:42:05;;;;;;;;;;;;;;;;;;5094527;28;19912;-71
2022/03/08 05:44:31;;;;;;;;;;;;;;;;;;5094851;28;19908;-71
2022/03/08 05:46:57;;;;;;;;;;;;;;;;;;5093236;28;19920;-71
2022/03/08 05:49:23;;;;;;;;;;;;;;;;;;5093436;28;19908;-71
2022/03/08 05:51:49;;;;;;;;;;;;;;;;;;5094802;28;19970;-72
2022/03/08 05:54:15;;;;;;;;;;;;;;;;;;5094791;28;19919;-71
2022/03/08 05:56:41;;;;;;;;;;;;;;;;;;5094283;28;19908;-71
2022/03/08 05:59:07;;;;;;;;;;;;;;;;;;5093295;28;20288;-72
2022/03/08 06:01:33;;;;;;;;;;;;;;;;;;5094573;28;19908;-72
2022/03/08 06:03:59;;;;;;;;;;;;;;;;;;5089868;28;19919;-71
2022/03/08 06:06:25;;;;;;;;;;;;;;;;;;5090279;28;19916;-71
2022/03/08 06:08:51;;;;;;;;;;;;;;;;;;5091414;28;19908;-71
2022/03/08 06:11:17;;;;;;;;;;;;;;;;;;5091675;28;20028;-71
2022/03/08 06:13:43;;;;;;;;;;;;;;;;;;5093523;28;20346;-70
2022/03/08 06:16:09;;;;;;;;;;;;;;;;;;5094050;28;20119;-71
2022/03/08 06:18:35;;;;;;;;;;;;;;;;;;5099269;28;19908;-72
2022/03/08 06:21:01;;;;;;;;;;;;;;;;;;5112475;28;19961;-71
2022/03/08 06:23:27;;;;;;;;;;;;;;;;;;5089768;28;20011;-70
2022/03/08 06:25:53;;;;;;;;;;;;;;;;;;5077174;28;20311;-71
2022/03/08 06:28:19;;;;;;;;;;;;;;;;;;5091493;28;19916;-71
2022/03/08 06:30:45;;;;;;;;;;;;;;;;;;5093122;28;19908;-70
2022/03/08 06:33:11;;;;;;;;;;;;;;;;;;5093393;28;19908;-71
2022/03/08 06:35:37;;;;;;;;;;;;;;;;;;5090842;28;19920;-70
2022/03/08 06:38:03;;;;;;;;;;;;;;;;;;5090130;28;20029;-71
2022/03/08 06:40:29;;;;;;;;;;;;;;;;;;5077771;28;20578;-71
2022/03/08 06:42:55;;;;;;;;;;;;;;;;;;5071652;28;19947;-71
2022/03/08 06:45:21;;;;;;;;;;;;;;;;;;5077915;28;19908;-71
2022/03/08 06:47:47;;;;;;;;;;;;;;;;;;5085503;28;19927;-71
2022/03/08 06:50:13;;;;;;;;;;;;;;;;;;5090287;28;19908;-71
2022/03/08 06:52:40;;;;;;;;;;;;;;;;;;5092716;28;19920;-71
2022/03/08 06:55:05;;;;;;;;;;;;;;;;;;5093087;28;19924;-72
2022/03/08 06:57:31;;;;;;;;;;;;;;;;;;5093172;28;20057;-70
2022/03/08 06:59:57;;;;;;;;;;;;;;;;;;5091538;28;19908;-71
2022/03/08 07:02:25;;;;;;;;;;;;;;;;;;5093214;28;19908;-73
2022/03/08 07:04:51;;;;;;;;;;;;;;;;;;5092537;28;20380;-71
2022/03/08 07:07:17;;;;;;;;;;;;;;;;;;5092458;28;19916;-70
2022/03/08 07:09:43;;;;;;;;;;;;;;;;;;5092015;28;20360;-71
2022/03/08 07:12:09;;;;;;;;;;;;;;;;;;5091855;28;20132;-70
2022/03/08 07:14:36;;;;;;;;;;;;;;;;;;5091445;28;19908;-71
2022/03/08 07:17:02;;;;;;;;;;;;;;;;;;5087505;28;19977;-69
2022/03/08 07:19:28;;;;;;;;;;;;;;;;;;5089207;28;19916;-69
2022/03/08 07:21:54;;;;;;;;;;;;;;;;;;5089902;28;19912;-69
2022/03/08 07:24:20;;;;;;;;;;;;;;;;;;5089786;28;19912;-69
2022/03/08 07:26:46;;;;;;;;;;;;;;;;;;5086779;28;20420;-70
2022/03/08 07:29:12;;;;;;;;;;;;;;;;;;5093146;28;19908;-70
2022/03/08 07:31:38;;;;;;;;;;;;;;;;;;5096878;28;19912;-68
2022/03/08 07:34:04;;;;;;;;;;;;;;;;;;5095104;28;19915;-69
2022/03/08 07:36:31;;;;;;;;;;;;;;;;;;5095364;28;19944;-69
2022/03/08 07:38:57;;;;;;;;;;;;;;;;;;5096513;28;19915;-70
2022/03/08 07:41:23;;;;;;;;;;;;;;;;;;5096177;28;19908;-70
2022/03/08 07:43:49;;;;;;;;;;;;;;;;;;5096501;28;19969;-73
2022/03/08 07:46:15;;;;;;;;;;;;;;;;;;5095776;28;19955;-70
2022/03/08 07:48:41;;;;;;;;;;;;;;;;;;5094929;28;19965;-70
2022/03/08 07:51:07;;;;;;;;;;;;;;;;;;5094720;28;20315;-70
2022/03/08 07:53:33;;;;;;;;;;;;;;;;;;5096100;28;19915;-70
2022/03/08 07:55:59;;;;;;;;;;;;;;;;;;5095329;28;19908;-70
2022/03/08 07:58:25;;;;;;;;;;;;;;;;;;5094561;28;19908;-70
2022/03/08 08:00:51;;;;;;;;;;;;;;;;;;5094424;28;19939;-72
2022/03/08 08:03:17;;;;;;;;;;;;;;;;;;5093990;28;20430;-71
2022/03/08 08:05:43;;;;;;;;;;;;;;;;;;5094292;28;19908;-69
2022/03/08 08:08:09;;;;;;;;;;;;;;;;;;5092918;28;20365;-69
2022/03/08 08:10:35;;;;;;;;;;;;;;;;;;5093997;28;20412;-70
2022/03/08 08:13:01;;;;;;;;;;;;;;;;;;5094868;28;19908;-70
2022/03/08 08:15:27;;;;;;;;;;;;;;;;;;5095651;28;19942;-70
2022/03/08 08:17:53;;;;;;;;;;;;;;;;;;5095103;28;19962;-70
2022/03/08 08:20:21;;;;;;;;;;;;;;;;;;5092854;28;19920;-71
2022/03/08 08:22:47;;;;;;;;;;;;;;;;;;5096008;28;19998;-68
2022/03/08 08:25:13;;;;;;;;;;;;;;;;;;5095656;28;20061;-69
2022/03/08 08:27:39;;;;;;;;;;;;;;;;;;5094608;28;20096;-69
2022/03/08 08:30:05;;;;;;;;;;;;;;;;;;5086984;28;19912;-70
2022/03/08 08:32:31;;;;;;;;;;;;;;;;;;5081529;28;19916;-69
2022/03/08 08:34:57;;;;;;;;;;;;;;;;;;5078122;28;19915;-69
2022/03/08 08:37:23;;;;;;;;;;;;;;;;;;5082372;28;20015;-70
2022/03/08 08:39:49;;;;;;;;;;;;;;;;;;5075201;28;19931;-70
2022/03/08 08:42:15;;;;;;;;;;;;;;;;;;5074013;28;19916;-70
2022/03/08 08:44:41;;;;;;;;;;;;;;;;;;5076234;28;20349;-70
2022/03/08 08:47:07;;;;;;;;;;;;;;;;;;5088133;28;20016;-71
2022/03/08 08:49:33;;;;;;;;;;;;;;;;;;5075381;28;20393;-70
2022/03/08 08:51:59;;;;;;;;;;;;;;;;;;5077529;28;19916;-69
2022/03/08 08:54:25;;;;;;;;;;;;;;;;;;5092323;28;19917;-70
2022/03/08 08:56:51;;;;;;;;;;;;;;;;;;5083867;28;19908;-72
2022/03/08 08:59:17;;;;;;;;;;;;;;;;;;5083784;28;19919;-71
2022/03/08 09:01:43;;;;;;;;;;;;;;;;;;5094609;28;19919;-74
2022/03/08 09:04:10;;;;;;;;;;;;;;;;;;5091467;28;19978;-74
2022/03/08 09:06:36;;;;;;;;;;;;;;;;;;5090786;28;19915;-73
2022/03/08 09:09:02;;;;;;;;;;;;;;;;;;5093356;28;19923;-73
2022/03/08 09:11:28;;;;;;;;;;;;;;;;;;5094363;28;19908;-76
2022/03/08 09:13:56;;;;;;;;;;;;;;;;;;5092697;28;19912;-74
2022/03/08 09:16:22;;;;;;;;;;;;;;;;;;5091602;28;19915;-73
2022/03/08 09:18:48;;;;;;;;;;;;;;;;;;5091597;28;19999;-75
2022/03/08 09:21:14;;;;;;;;;;;;;;;;;;5092794;28;19953;-75
2022/03/08 09:23:41;;;;;;;;;;;;;;;;;;5091638;28;19908;-76
2022/03/08 09:26:07;;;;;;;;;;;;;;;;;;5093179;28;20412;-70
2022/03/08 09:28:33;;;;;;;;;;;;;;;;;;5088410;28;20363;-69
2022/03/08 09:30:59;;;;;;;;;;;;;;;;;;5089725;28;19919;-70
2022/03/08 09:33:25;;;;;;;;;;;;;;;;;;5090514;28;19913;-70
2022/03/08 09:52:27;;;;;;;;;;;;;;;;;;5129381;27;19942;-70
2022/03/08 09:54:53;;;;;;;;;;;;;;;;;;5130640;28;20384;-70
2022/03/08 09:57:22;;;;;;;;;;;;;;;;;;5127098;28;19946;-69
2022/03/08 09:59:48;;;;;;;;;;;;;;;;;;5128774;27;20328;-71
2022/03/08 10:02:14;;;;;;;;;;;;;;;;;;5127671;28;19924;-71
2022/03/08 10:04:40;;;;;;;;;;;;;;;;;;5127893;28;19908;-70
2022/03/08 10:07:06;;;;;;;;;;;;;;;;;;5127871;28;19968;-70
2022/03/08 10:09:32;;;;;;;;;;;;;;;;;;5128596;28;19911;-68
2022/03/08 10:11:58;;;;;;;;;;;;;;;;;;5129852;28;19953;-69
2022/03/08 10:14:24;;;;;;;;;;;;;;;;;;5129430;28;19907;-74
2022/03/08 10:16:52;;;;;;;;;;;;;;;;;;5129980;28;19919;-71
2022/03/08 10:19:18;;;;;;;;;;;;;;;;;;5128946;28;19907;-73
2022/03/08 10:21:44;;;;;;;;;;;;;;;;;;5129926;28;19916;-71
2022/03/08 10:24:12;;;;;;;;;;;;;;;;;;5127495;28;19908;-72
2022/03/08 10:26:39;;;;;;;;;;;;;;;;;;5128336;28;20268;-72
2022/03/08 10:29:05;;;;;;;;;;;;;;;;;;5127179;28;19908;-72
2022/03/08 10:31:31;;;;;;;;;;;;;;;;;;5127214;28;19912;-70
2022/03/08 10:33:57;;;;;;;;;;;;;;;;;;5127656;28;20516;-70
2022/03/08 10:36:23;;;;;;;;;;;;;;;;;;5126943;28;19915;-71
2022/03/08 10:38:49;;;;;;;;;;;;;;;;;;5126002;28;19908;-71
2022/03/08 10:41:15;;;;;;;;;;;;;;;;;;5125588;28;19919;-72
2022/03/08 10:43:41;;;;;;;;;;;;;;;;;;5127632;28;20337;-69
2022/03/08 10:46:07;;;;;;;;;;;;;;;;;;5127547;28;19907;-69
2022/03/08 10:48:36;;;;;;;;;;;;;;;;;;5128855;28;19939;-70
2022/03/08 10:51:02;;;;;;;;;;;;;;;;;;5127790;28;19920;-72
2022/03/08 10:53:28;;;;;;;;;;;;;;;;;;5113207;28;19911;-73
2022/03/08 10:55:55;;;;;;;;;;;;;;;;;;5114293;28;20284;-70
2022/03/08 10:58:21;;;;;;;;;;;;;;;;;;5113663;28;20282;-70
2022/03/08 11:00:47;;;;;;;;;;;;;;;;;;5113775;28;20416;-70
2022/03/08 11:03:13;;;;;;;;;;;;;;;;;;5113561;28;19957;-72
2022/03/08 11:05:39;;;;;;;;;;;;;;;;;;5115323;28;19956;-70
2022/03/08 11:08:05;;;;;;;;;;;;;;;;;;5114516;28;19981;-70
2022/03/08 11:10:31;;;;;;;;;;;;;;;;;;5113957;28;19908;-71
2022/03/08 11:12:57;;;;;;;;;;;;;;;;;;5115124;28;19959;-70
2022/03/08 11:15:23;;;;;;;;;;;;;;;;;;5114135;28;19923;-69
2022/03/08 11:17:49;;;;;;;;;;;;;;;;;;5114995;28;19907;-70
2022/03/08 11:20:18;;;;;;;;;;;;;;;;;;5114338;28;20373;-68
2022/03/08 11:22:44;;;;;;;;;;;;;;;;;;5114679;28;20353;-71
2022/03/08 11:25:10;;;;;;;;;;;;;;;;;;5113384;28;19919;-71
2022/03/08 11:27:37;;;;;;;;;;;;;;;;;;5114534;28;20372;-71
2022/03/08 11:30:03;;;;;;;;;;;;;;;;;;5114599;28;19995;-71
2022/03/08 11:32:29;;;;;;;;;;;;;;;;;;5114686;28;19958;-70
2022/03/08 11:34:55;;;;;;;;;;;;;;;;;;5114538;28;19914;-70
2022/03/08 11:37:21;;;;;;;;;;;;;;;;;;5112740;28;19908;-71
2022/03/08 11:39:47;;;;;;;;;;;;;;;;;;5114505;28;19908;-71
2022/03/08 11:42:13;;;;;;;;;;;;;;;;;;5113515;28;19957;-71
2022/03/08 11:44:39;;;;;;;;;;;;;;;;;;5114551;28;19911;-70
2022/03/08 11:47:05;;;;;;;;;;;;;;;;;;5114176;28;20398;-70
2022/03/08 11:49:31;;;;;;;;;;;;;;;;;;5110286;28;19960;-69
2022/03/08 11:51:57;;;;;;;;;;;;;;;;;;5112307;28;19919;-70
2022/03/08 11:54:23;;;;;;;;;;;;;;;;;;5112492;28;20620;-68
2022/03/08 11:56:50;;;;;;;;;;;;;;;;;;5112654;28;19918;-69
2022/03/08 11:59:16;;;;;;;;;;;;;;;;;;5112279;28;19912;-68
2022/03/08 12:01:42;;;;;;;;;;;;;;;;;;5114124;28;19916;-69
2022/03/08 12:04:09;;;;;;;;;;;;;;;;;;5110734;28;19915;-69
2022/03/08 12:06:38;;;;;;;;;;;;;;;;;;5114047;28;20285;-67
2022/03/08 12:09:07;;;;;;;;;;;;;;;;;;5111850;28;19916;-69
2022/03/08 12:11:34;;;;;;;;;;;;;;;;;;5113602;28;19915;-69
2022/03/08 12:14:00;;;;;;;;;;;;;;;;;;5114113;28;19908;-70
2022/03/08 12:16:26;;;;;;;;;;;;;;;;;;5112070;28;19916;-68
2022/03/08 12:18:52;;;;;;;;;;;;;;;;;;5113596;28;20371;-70
2022/03/08 12:21:19;;;;;;;;;;;;;;;;;;5113203;28;19920;-70
2022/03/08 12:23:45;;;;;;;;;;;;;;;;;;5113507;28;19943;-71
2022/03/08 12:26:11;;;;;;;;;;;;;;;;;;5111934;28;19946;-68
2022/03/08 12:28:36;;;;;;;;;;;;;;;;;;5113823;28;19914;-70
2022/03/08 12:31:02;;;;;;;;;;;;;;;;;;5112759;28;19908;-71
2022/03/08 12:33:28;;;;;;;;;;;;;;;;;;5113221;28;20437;-69
2022/03/08 12:35:54;;;;;;;;;;;;;;;;;;5113678;28;19908;-69
2022/03/08 12:38:20;;;;;;;;;;;;;;;;;;5111888;28;19907;-70
2022/03/08 12:40:46;;;;;;;;;;;;;;;;;;5113046;28;19920;-71
2022/03/08 12:43:12;;;;;;;;;;;;;;;;;;5111273;28;19908;-71
2022/03/08 12:45:38;;;;;;;;;;;;;;;;;;5112753;28;19999;-70
2022/03/08 12:48:04;;;;;;;;;;;;;;;;;;5110504;28;20029;-69
2022/03/08 12:50:30;;;;;;;;;;;;;;;;;;5117980;27;20052;-70
2022/03/08 12:52:56;;;;;;;;;;;;;;;;;;5133379;27;19962;-69
2022/03/08 12:55:22;;;;;;;;;;;;;;;;;;5114825;27;20003;-69
2022/03/08 12:57:48;;;;;;;;;;;;;;;;;;5133696;27;19944;-69
2022/03/08 13:00:15;;;;;;;;;;;;;;;;;;5132628;27;19916;-69
2022/03/08 13:02:41;;;;;;;;;;;;;;;;;;5133639;27;19914;-69
2022/03/08 13:05:07;;;;;;;;;;;;;;;;;;5114216;27;19915;-69
2022/03/08 13:07:33;;;;;;;;;;;;;;;;;;5133016;27;20356;-70
2022/03/08 13:09:59;;;;;;;;;;;;;;;;;;5133555;27;19914;-72
2022/03/08 13:12:25;;;;;;;;;;;;;;;;;;5114229;27;20291;-72
2022/03/08 13:14:51;;;;;;;;;;;;;;;;;;5115920;27;20272;-73
2022/03/08 13:17:17;;;;;;;;;;;;;;;;;;5116504;27;19907;-72
2022/03/08 13:19:43;;;;;;;;;;;;;;;;;;5116456;27;19911;-70
2022/03/08 13:22:09;;;;;;;;;;;;;;;;;;5134478;27;19918;-70
2022/03/08 13:24:35;;;;;;;;;;;;;;;;;;5134921;27;19908;-69
2022/03/08 13:27:02;;;;;;;;;;;;;;;;;;5134538;27;20376;-69
2022/03/08 13:29:28;;;;;;;;;;;;;;;;;;5134728;27;19914;-69
2022/03/08 13:31:54;;;;;;;;;;;;;;;;;;5135326;27;19907;-68
2022/03/08 13:34:20;;;;;;;;;;;;;;;;;;5134538;27;20472;-69
2022/03/08 13:36:46;;;;;;;;;;;;;;;;;;5134587;27;19972;-69
2022/03/08 13:39:13;;;;;;;;;;;;;;;;;;5116166;28;20425;-69
2022/03/08 13:41:38;;;;;;;;;;;;;;;;;;5115647;28;20295;-69
2022/03/08 13:44:05;;;;;;;;;;;;;;;;;;5116179;28;19915;-69
2022/03/08 13:46:31;;;;;;;;;;;;;;;;;;5134643;28;19908;-70
2022/03/08 13:48:57;;;;;;;;;;;;;;;;;;5134132;28;20364;-69
2022/03/08 13:51:23;;;;;;;;;;;;;;;;;;5134384;28;19920;-69
2022/03/08 13:53:52;;;;;;;;;;;;;;;;;;5134629;28;19956;-69
2022/03/08 13:56:18;;;;;;;;;;;;;;;;;;5134246;28;19919;-68
2022/03/08 13:58:44;;;;;;;;;;;;;;;;;;5134594;28;19934;-69
2022/03/08 14:01:10;;;;;;;;;;;;;;;;;;5134460;28;19916;-70
2022/03/08 14:03:36;;;;;;;;;;;;;;;;;;5133939;28;20292;-70
2022/03/08 14:06:02;;;;;;;;;;;;;;;;;;5134426;28;19915;-69
2022/03/08 14:08:28;;;;;;;;;;;;;;;;;;5134360;28;19915;-68
2022/03/08 14:10:54;;;;;;;;;;;;;;;;;;5115652;28;20288;-68
2022/03/08 14:13:20;;;;;;;;;;;;;;;;;;5134401;28;19908;-69
2022/03/08 14:15:46;;;;;;;;;;;;;;;;;;5115980;28;19918;-69
2022/03/08 14:18:14;;;;;;;;;;;;;;;;;;5134071;28;19907;-69
2022/03/08 14:20:41;;;;;;;;;;;;;;;;;;5134452;28;19956;-69
2022/03/08 14:23:08;;;;;;;;;;;;;;;;;;5134287;28;19960;-69
2022/03/08 14:25:34;;;;;;;;;;;;;;;;;;5133944;28;19908;-70
2022/03/08 14:28:00;;;;;;;;;;;;;;;;;;5118175;27;19908;-69
2022/03/08 14:30:27;;;;;;;;;;;;;;;;;;5119362;27;20023;-68
2022/03/08 14:32:53;;;;;;;;;;;;;;;;;;5119603;27;19914;-68
2022/03/08 14:35:19;;;;;;;;;;;;;;;;;;5119540;27;19907;-69
2022/03/08 14:37:45;;;;;;;;;;;;;;;;;;5137429;27;19973;-69
2022/03/08 14:40:11;;;;;;;;;;;;;;;;;;5119397;27;20014;-70
2022/03/08 14:42:37;;;;;;;;;;;;;;;;;;5137949;27;19946;-69
2022/03/08 14:45:03;;;;;;;;;;;;;;;;;;5118926;27;20345;-69
2022/03/08 14:47:29;;;;;;;;;;;;;;;;;;5137871;27;19907;-70
2022/03/08 14:49:55;;;;;;;;;;;;;;;;;;5137960;27;20403;-68
2022/03/08 14:52:21;;;;;;;;;;;;;;;;;;5137045;27;19926;-68
2022/03/08 14:54:47;;;;;;;;;;;;;;;;;;5137683;27;20424;-69
2022/03/08 14:57:13;;;;;;;;;;;;;;;;;;5136776;27;19908;-68
2022/03/08 14:59:39;;;;;;;;;;;;;;;;;;5136497;27;19914;-69
2022/03/08 15:02:05;;;;;;;;;;;;;;;;;;5136353;27;19915;-68
2022/03/08 15:04:31;;;;;;;;;;;;;;;;;;5137017;27;19915;-68
2022/03/08 15:06:57;;;;;;;;;;;;;;;;;;5136916;27;20365;-68
2022/03/08 15:09:23;;;;;;;;;;;;;;;;;;5137134;27;19912;-68
2022/03/08 15:11:49;;;;;;;;;;;;;;;;;;5137183;27;19934;-69
2022/03/08 15:14:15;;;;;;;;;;;;;;;;;;5136828;27;19931;-69
2022/03/08 15:16:41;;;;;;;;;;;;;;;;;;5137048;27;19953;-69
2022/03/08 15:19:07;;;;;;;;;;;;;;;;;;5137166;27;20299;-69
2022/03/08 15:21:33;;;;;;;;;;;;;;;;;;5136349;27;19916;-69
2022/03/08 15:23:59;;;;;;;;;;;;;;;;;;5136929;27;19907;-69
2022/03/08 15:26:25;;;;;;;;;;;;;;;;;;5136826;27;19914;-69
2022/03/08 15:28:52;;;;;;;;;;;;;;;;;;5118012;27;19907;-69
2022/03/08 15:31:18;;;;;;;;;;;;;;;;;;5118220;27;19907;-69
2022/03/08 15:33:44;;;;;;;;;;;;;;;;;;5117303;27;19918;-69
2022/03/08 15:36:10;;;;;;;;;;;;;;;;;;5118197;27;19914;-69
2022/03/08 15:38:36;;;;;;;;;;;;;;;;;;5118011;27;20291;-70
2022/03/08 15:41:02;;;;;;;;;;;;;;;;;;5136176;27;19915;-69
2022/03/08 15:43:28;;;;;;;;;;;;;;;;;;5136701;27;19912;-69
2022/03/08 15:45:54;;;;;;;;;;;;;;;;;;5136554;27;20289;-69
2022/03/08 15:48:20;;;;;;;;;;;;;;;;;;5136427;27;19908;-69
2022/03/08 15:50:46;;;;;;;;;;;;;;;;;;5136736;27;20322;-69
2022/03/08 15:53:12;;;;;;;;;;;;;;;;;;5136739;27;19960;-69
2022/03/08 15:55:38;;;;;;;;;;;;;;;;;;5117653;27;19907;-69
2022/03/08 15:58:04;;;;;;;;;;;;;;;;;;5136454;27;20388;-69
2022/03/08 16:00:31;;;;;;;;;;;;;;;;;;5136806;27;19919;-69
2022/03/08 16:02:57;;;;;;;;;;;;;;;;;;5135798;27;19930;-69
2022/03/08 16:05:23;;;;;;;;;;;;;;;;;;5136786;27;20341;-69
2022/03/08 16:07:49;;;;;;;;;;;;;;;;;;5117895;27;19919;-69
2022/03/08 16:10:16;;;;;;;;;;;;;;;;;;5135717;27;20368;-70
2022/03/08 16:12:42;;;;;;;;;;;;;;;;;;5117634;27;19911;-70
2022/03/08 16:15:08;;;;;;;;;;;;;;;;;;5117659;27;19907;-70
2022/03/08 16:17:34;;;;;;;;;;;;;;;;;;5117346;27;19990;-70
2022/03/08 16:20:00;;;;;;;;;;;;;;;;;;5136119;27;19935;-69
2022/03/08 16:22:26;;;;;;;;;;;;;;;;;;5136036;27;19911;-69
2022/03/08 16:24:55;;;;;;;;;;;;;;;;;;5117063;27;19908;-69
2022/03/08 16:27:21;;;;;;;;;;;;;;;;;;5135974;27;19911;-70
2022/03/08 16:29:47;;;;;;;;;;;;;;;;;;5135820;27;19967;-69
2022/03/08 16:32:13;;;;;;;;;;;;;;;;;;5116960;27;19914;-69
2022/03/08 16:34:39;;;;;;;;;;;;;;;;;;5135810;27;19907;-69
2022/03/08 16:37:05;;;;;;;;;;;;;;;;;;5135476;27;20054;-69
2022/03/08 16:39:31;;;;;;;;;;;;;;;;;;5117326;27;19911;-69
2022/03/08 16:41:57;;;;;;;;;;;;;;;;;;5135687;27;19915;-70
2022/03/08 16:44:23;;;;;;;;;;;;;;;;;;5135612;27;20280;-70
2022/03/08 16:46:49;;;;;;;;;;;;;;;;;;5117114;27;19912;-70
2022/03/08 16:49:15;;;;;;;;;;;;;;;;;;5135252;27;20006;-70
2022/03/08 16:51:41;;;;;;;;;;;;;;;;;;5134427;27;19955;-69
2022/03/08 16:54:07;;;;;;;;;;;;;;;;;;5135217;27;19907;-69